sensor_id;sensor_type;location;lat;lon;timestamp;P1;durP1;ratioP1;P2;durP2;ratioP2
32407;SDS011;18869;55.970;37.502;2024-01-15T00:01:59;14.23;;;11.70;;
32407;SDS011;18869;55.970;37.502;2024-01-15T00:04:26;15.03;;;12.33;;
32407;SDS011;18869;55.970;37.502;2024-01-15T00:06:54;14.90;;;11.03;;
32407;SDS011;18869;55.970;37.502;2024-01-15T00:09:20;14.80;;;11.50;;
32407;SDS011;18869;55.970;37.502;2024-01-15T00:11:48;16.83;;;11.50;;
32407;SDS011;18869;55.970;37.502;2024-01-15T00:14:17;18.13;;;12.93;;
32407;SDS011;18869;55.970;37.502;2024-01-15T00:16:46;15.03;;;11.27;;
32407;SDS011;18869;55.970;37.502;2024-01-15T00:19:16;15.70;;;11.60;;
32407;SDS011;18869;55.970;37.502;2024-01-15T00:21:44;15.83;;;10.57;;
32407;SDS011;18869;55.970;37.502;2024-01-15T00:24:12;16.20;;;11.67;;
32407;SDS011;18869;55.970;37.502;2024-01-15T00:26:39;13.07;;;10.93;;
32407;SDS011;18869;55.970;37.502;2024-01-15T00:29:06;14.97;;;11.47;;
32407;SDS011;18869;55.970;37.502;2024-01-15T00:31:33;14.23;;;11.47;;
32407;SDS011;18869;55.970;37.502;2024-01-15T00:34:00;15.80;;;12.13;;
32407;SDS011;18869;55.970;37.502;2024-01-15T00:36:29;14.10;;;12.37;;
32407;SDS011;18869;55.970;37.502;2024-01-15T00:38:56;16.27;;;12.10;;
32407;SDS011;18869;55.970;37.502;2024-01-15T00:41:24;15.97;;;12.00;;
32407;SDS011;18869;55.970;37.502;2024-01-15T00:43:50;16.83;;;12.03;;
32407;SDS011;18869;55.970;37.502;2024-01-15T00:46:19;14.73;;;11.90;;
32407;SDS011;18869;55.970;37.502;2024-01-15T00:48:46;14.20;;;11.70;;
32407;SDS011;18869;55.970;37.502;2024-01-15T00:51:13;18.73;;;14.47;;
32407;SDS011;18869;55.970;37.502;2024-01-15T00:53:40;15.20;;;11.80;;
32407;SDS011;18869;55.970;37.502;2024-01-15T00:56:07;15.20;;;12.07;;
32407;SDS011;18869;55.970;37.502;2024-01-15T00:58:34;16.23;;;11.77;;
32407;SDS011;18869;55.970;37.502;2024-01-15T01:01:01;19.03;;;12.53;;
32407;SDS011;18869;55.970;37.502;2024-01-15T01:03:29;21.27;;;14.07;;
32407;SDS011;18869;55.970;37.502;2024-01-15T01:05:55;16.37;;;11.97;;
32407;SDS011;18869;55.970;37.502;2024-01-15T01:08:22;17.80;;;12.97;;
32407;SDS011;18869;55.970;37.502;2024-01-15T01:10:49;17.77;;;13.00;;
32407;SDS011;18869;55.970;37.502;2024-01-15T01:13:16;13.17;;;11.73;;
32407;SDS011;18869;55.970;37.502;2024-01-15T01:15:44;17.57;;;11.60;;
32407;SDS011;18869;55.970;37.502;2024-01-15T01:18:11;16.87;;;12.73;;
32407;SDS011;18869;55.970;37.502;2024-01-15T01:20:38;17.40;;;13.20;;
32407;SDS011;18869;55.970;37.502;2024-01-15T01:23:04;19.03;;;13.10;;
32407;SDS011;18869;55.970;37.502;2024-01-15T01:25:31;22.40;;;15.60;;
32407;SDS011;18869;55.970;37.502;2024-01-15T01:27:58;16.30;;;13.30;;
32407;SDS011;18869;55.970;37.502;2024-01-15T01:30:25;20.07;;;15.20;;
32407;SDS011;18869;55.970;37.502;2024-01-15T01:32:53;15.47;;;11.87;;
32407;SDS011;18869;55.970;37.502;2024-01-15T01:35:20;14.40;;;10.47;;
32407;SDS011;18869;55.970;37.502;2024-01-15T01:37:49;18.43;;;13.73;;
32407;SDS011;18869;55.970;37.502;2024-01-15T01:40:16;17.43;;;12.37;;
32407;SDS011;18869;55.970;37.502;2024-01-15T01:42:44;18.40;;;12.30;;
32407;SDS011;18869;55.970;37.502;2024-01-15T01:45:10;16.90;;;13.00;;
32407;SDS011;18869;55.970;37.502;2024-01-15T01:47:38;18.77;;;13.53;;
32407;SDS011;18869;55.970;37.502;2024-01-15T01:50:06;15.23;;;11.80;;
32407;SDS011;18869;55.970;37.502;2024-01-15T01:52:33;15.37;;;12.50;;
32407;SDS011;18869;55.970;37.502;2024-01-15T01:55:01;17.60;;;12.57;;
32407;SDS011;18869;55.970;37.502;2024-01-15T01:57:30;20.40;;;14.43;;
32407;SDS011;18869;55.970;37.502;2024-01-15T01:59:58;20.33;;;13.67;;
32407;SDS011;18869;55.970;37.502;2024-01-15T02:02:25;37.03;;;20.00;;
32407;SDS011;18869;55.970;37.502;2024-01-15T02:04:53;27.20;;;16.60;;
32407;SDS011;18869;55.970;37.502;2024-01-15T02:07:20;25.93;;;16.67;;
32407;SDS011;18869;55.970;37.502;2024-01-15T02:09:47;24.43;;;15.20;;
32407;SDS011;18869;55.970;37.502;2024-01-15T02:12:14;17.33;;;13.40;;
32407;SDS011;18869;55.970;37.502;2024-01-15T02:14:41;18.43;;;13.37;;
32407;SDS011;18869;55.970;37.502;2024-01-15T02:17:08;17.30;;;13.53;;
32407;SDS011;18869;55.970;37.502;2024-01-15T02:19:35;20.77;;;14.20;;
32407;SDS011;18869;55.970;37.502;2024-01-15T02:22:02;17.93;;;12.53;;
32407;SDS011;18869;55.970;37.502;2024-01-15T02:24:30;20.03;;;16.07;;
32407;SDS011;18869;55.970;37.502;2024-01-15T02:26:57;15.73;;;11.80;;
32407;SDS011;18869;55.970;37.502;2024-01-15T02:29:24;22.40;;;14.40;;
32407;SDS011;18869;55.970;37.502;2024-01-15T02:31:51;20.00;;;13.37;;
32407;SDS011;18869;55.970;37.502;2024-01-15T02:34:18;21.00;;;14.53;;
32407;SDS011;18869;55.970;37.502;2024-01-15T02:36:45;19.47;;;14.80;;
32407;SDS011;18869;55.970;37.502;2024-01-15T02:39:12;21.17;;;14.13;;
32407;SDS011;18869;55.970;37.502;2024-01-15T02:41:39;19.93;;;14.03;;
32407;SDS011;18869;55.970;37.502;2024-01-15T02:44:06;22.20;;;13.67;;
32407;SDS011;18869;55.970;37.502;2024-01-15T02:46:33;19.37;;;13.37;;
32407;SDS011;18869;55.970;37.502;2024-01-15T02:49:00;19.13;;;14.83;;
32407;SDS011;18869;55.970;37.502;2024-01-15T02:51:27;20.77;;;15.50;;
32407;SDS011;18869;55.970;37.502;2024-01-15T02:53:54;21.70;;;12.93;;
32407;SDS011;18869;55.970;37.502;2024-01-15T02:56:21;18.53;;;14.23;;
32407;SDS011;18869;55.970;37.502;2024-01-15T02:58:48;18.10;;;12.77;;
32407;SDS011;18869;55.970;37.502;2024-01-15T03:01:18;20.20;;;14.67;;
32407;SDS011;18869;55.970;37.502;2024-01-15T03:03:45;18.37;;;14.27;;
32407;SDS011;18869;55.970;37.502;2024-01-15T03:06:12;18.67;;;12.37;;
32407;SDS011;18869;55.970;37.502;2024-01-15T03:08:39;21.00;;;14.13;;
32407;SDS011;18869;55.970;37.502;2024-01-15T03:11:06;20.67;;;15.63;;
32407;SDS011;18869;55.970;37.502;2024-01-15T03:13:35;21.47;;;15.43;;
32407;SDS011;18869;55.970;37.502;2024-01-15T03:16:03;16.63;;;12.60;;
32407;SDS011;18869;55.970;37.502;2024-01-15T03:18:30;22.80;;;15.40;;
32407;SDS011;18869;55.970;37.502;2024-01-15T03:20:58;15.83;;;13.07;;
32407;SDS011;18869;55.970;37.502;2024-01-15T03:23:27;21.83;;;14.50;;
32407;SDS011;18869;55.970;37.502;2024-01-15T03:25:54;22.47;;;15.30;;
32407;SDS011;18869;55.970;37.502;2024-01-15T03:28:21;19.33;;;14.93;;
32407;SDS011;18869;55.970;37.502;2024-01-15T03:30:48;22.87;;;14.33;;
32407;SDS011;18869;55.970;37.502;2024-01-15T03:33:16;18.43;;;13.87;;
32407;SDS011;18869;55.970;37.502;2024-01-15T03:35:43;19.97;;;14.70;;
32407;SDS011;18869;55.970;37.502;2024-01-15T03:38:10;19.70;;;14.83;;
32407;SDS011;18869;55.970;37.502;2024-01-15T03:40:37;20.63;;;14.83;;
32407;SDS011;18869;55.970;37.502;2024-01-15T03:43:04;20.23;;;14.80;;
32407;SDS011;18869;55.970;37.502;2024-01-15T03:45:31;18.23;;;14.93;;
32407;SDS011;18869;55.970;37.502;2024-01-15T03:47:58;19.77;;;14.20;;
32407;SDS011;18869;55.970;37.502;2024-01-15T03:50:25;18.27;;;12.57;;
32407;SDS011;18869;55.970;37.502;2024-01-15T03:52:52;16.93;;;13.07;;
32407;SDS011;18869;55.970;37.502;2024-01-15T03:55:19;24.40;;;14.07;;
32407;SDS011;18869;55.970;37.502;2024-01-15T03:57:46;19.57;;;13.87;;
32407;SDS011;18869;55.970;37.502;2024-01-15T04:00:14;21.47;;;15.87;;
32407;SDS011;18869;55.970;37.502;2024-01-15T04:02:43;24.03;;;14.97;;
32407;SDS011;18869;55.970;37.502;2024-01-15T04:05:10;19.80;;;14.53;;
32407;SDS011;18869;55.970;37.502;2024-01-15T04:07:37;20.83;;;15.13;;
32407;SDS011;18869;55.970;37.502;2024-01-15T04:10:05;18.27;;;15.23;;
32407;SDS011;18869;55.970;37.502;2024-01-15T04:12:32;20.83;;;15.40;;
32407;SDS011;18869;55.970;37.502;2024-01-15T04:14:59;27.33;;;17.03;;
32407;SDS011;18869;55.970;37.502;2024-01-15T04:17:27;22.83;;;15.27;;
32407;SDS011;18869;55.970;37.502;2024-01-15T04:19:54;23.30;;;16.63;;
32407;SDS011;18869;55.970;37.502;2024-01-15T04:22:20;20.57;;;15.50;;
32407;SDS011;18869;55.970;37.502;2024-01-15T04:24:48;22.37;;;15.33;;
32407;SDS011;18869;55.970;37.502;2024-01-15T04:27:15;19.30;;;14.17;;
32407;SDS011;18869;55.970;37.502;2024-01-15T04:29:42;18.23;;;14.07;;
32407;SDS011;18869;55.970;37.502;2024-01-15T04:32:10;18.77;;;14.07;;
32407;SDS011;18869;55.970;37.502;2024-01-15T04:34:37;23.17;;;16.43;;
32407;SDS011;18869;55.970;37.502;2024-01-15T04:37:04;21.13;;;14.97;;
32407;SDS011;18869;55.970;37.502;2024-01-15T04:39:31;23.93;;;15.90;;
32407;SDS011;18869;55.970;37.502;2024-01-15T04:41:58;21.80;;;14.57;;
32407;SDS011;18869;55.970;37.502;2024-01-15T04:44:25;21.43;;;15.70;;
32407;SDS011;18869;55.970;37.502;2024-01-15T04:46:52;20.77;;;15.83;;
32407;SDS011;18869;55.970;37.502;2024-01-15T04:49:19;24.93;;;16.03;;
32407;SDS011;18869;55.970;37.502;2024-01-15T04:51:46;20.83;;;14.83;;
32407;SDS011;18869;55.970;37.502;2024-01-15T04:54:13;25.10;;;15.13;;
32407;SDS011;18869;55.970;37.502;2024-01-15T04:56:43;23.97;;;16.33;;
32407;SDS011;18869;55.970;37.502;2024-01-15T04:59:11;22.60;;;13.83;;
32407;SDS011;18869;55.970;37.502;2024-01-15T05:01:38;24.13;;;14.97;;
32407;SDS011;18869;55.970;37.502;2024-01-15T05:04:05;22.07;;;16.53;;
32407;SDS011;18869;55.970;37.502;2024-01-15T05:06:32;22.10;;;15.27;;
32407;SDS011;18869;55.970;37.502;2024-01-15T05:08:59;23.53;;;16.27;;
32407;SDS011;18869;55.970;37.502;2024-01-15T05:11:26;21.33;;;14.87;;
32407;SDS011;18869;55.970;37.502;2024-01-15T05:13:52;20.97;;;14.40;;
32407;SDS011;18869;55.970;37.502;2024-01-15T05:16:20;22.30;;;15.77;;
32407;SDS011;18869;55.970;37.502;2024-01-15T05:18:47;20.40;;;14.37;;
32407;SDS011;18869;55.970;37.502;2024-01-15T05:21:14;24.67;;;17.60;;
32407;SDS011;18869;55.970;37.502;2024-01-15T05:23:41;23.37;;;16.50;;
32407;SDS011;18869;55.970;37.502;2024-01-15T05:26:08;24.87;;;15.40;;
32407;SDS011;18869;55.970;37.502;2024-01-15T05:28:35;25.20;;;15.70;;
32407;SDS011;18869;55.970;37.502;2024-01-15T05:31:03;21.07;;;14.83;;
32407;SDS011;18869;55.970;37.502;2024-01-15T05:33:30;23.23;;;14.73;;
32407;SDS011;18869;55.970;37.502;2024-01-15T05:35:57;25.50;;;15.73;;
32407;SDS011;18869;55.970;37.502;2024-01-15T05:38:25;22.60;;;17.10;;
32407;SDS011;18869;55.970;37.502;2024-01-15T05:40:51;23.70;;;17.43;;
32407;SDS011;18869;55.970;37.502;2024-01-15T05:43:18;22.53;;;15.80;;
32407;SDS011;18869;55.970;37.502;2024-01-15T05:45:45;23.00;;;15.83;;
32407;SDS011;18869;55.970;37.502;2024-01-15T05:48:12;27.10;;;17.10;;
32407;SDS011;18869;55.970;37.502;2024-01-15T05:50:41;21.00;;;16.33;;
32407;SDS011;18869;55.970;37.502;2024-01-15T05:53:08;25.47;;;16.37;;
32407;SDS011;18869;55.970;37.502;2024-01-15T05:55:35;22.57;;;16.87;;
32407;SDS011;18869;55.970;37.502;2024-01-15T05:58:06;20.87;;;16.03;;
32407;SDS011;18869;55.970;37.502;2024-01-15T06:00:33;33.00;;;20.47;;
32407;SDS011;18869;55.970;37.502;2024-01-15T06:03:01;23.70;;;15.73;;
32407;SDS011;18869;55.970;37.502;2024-01-15T06:05:28;24.63;;;16.87;;
32407;SDS011;18869;55.970;37.502;2024-01-15T06:07:56;26.27;;;17.03;;
32407;SDS011;18869;55.970;37.502;2024-01-15T06:10:23;24.70;;;15.70;;
32407;SDS011;18869;55.970;37.502;2024-01-15T06:12:50;22.03;;;16.03;;
32407;SDS011;18869;55.970;37.502;2024-01-15T06:15:17;23.73;;;15.77;;
32407;SDS011;18869;55.970;37.502;2024-01-15T06:17:44;24.80;;;16.17;;
32407;SDS011;18869;55.970;37.502;2024-01-15T06:20:11;19.43;;;14.10;;
32407;SDS011;18869;55.970;37.502;2024-01-15T06:22:38;19.93;;;14.37;;
32407;SDS011;18869;55.970;37.502;2024-01-15T06:25:07;24.43;;;16.63;;
32407;SDS011;18869;55.970;37.502;2024-01-15T06:27:34;25.63;;;18.07;;
32407;SDS011;18869;55.970;37.502;2024-01-15T06:30:01;24.33;;;16.23;;
32407;SDS011;18869;55.970;37.502;2024-01-15T06:32:31;24.43;;;16.87;;
32407;SDS011;18869;55.970;37.502;2024-01-15T06:34:58;24.73;;;16.63;;
32407;SDS011;18869;55.970;37.502;2024-01-15T06:37:25;28.87;;;17.67;;
32407;SDS011;18869;55.970;37.502;2024-01-15T06:39:53;29.37;;;18.20;;
32407;SDS011;18869;55.970;37.502;2024-01-15T06:42:26;25.00;;;17.67;;
32407;SDS011;18869;55.970;37.502;2024-01-15T06:44:53;27.00;;;17.63;;
32407;SDS011;18869;55.970;37.502;2024-01-15T06:47:20;23.00;;;15.80;;
32407;SDS011;18869;55.970;37.502;2024-01-15T06:49:47;22.57;;;16.20;;
32407;SDS011;18869;55.970;37.502;2024-01-15T06:52:16;22.23;;;14.63;;
32407;SDS011;18869;55.970;37.502;2024-01-15T06:54:43;22.93;;;15.20;;
32407;SDS011;18869;55.970;37.502;2024-01-15T06:57:10;25.67;;;16.37;;
32407;SDS011;18869;55.970;37.502;2024-01-15T06:59:38;21.43;;;14.07;;
32407;SDS011;18869;55.970;37.502;2024-01-15T07:02:05;22.77;;;16.27;;
32407;SDS011;18869;55.970;37.502;2024-01-15T07:04:32;23.37;;;16.20;;
32407;SDS011;18869;55.970;37.502;2024-01-15T07:06:59;24.47;;;16.03;;
32407;SDS011;18869;55.970;37.502;2024-01-15T07:09:28;21.63;;;13.73;;
32407;SDS011;18869;55.970;37.502;2024-01-15T07:11:55;18.57;;;14.20;;
32407;SDS011;18869;55.970;37.502;2024-01-15T07:14:25;27.07;;;16.40;;
32407;SDS011;18869;55.970;37.502;2024-01-15T07:16:52;25.37;;;17.97;;
32407;SDS011;18869;55.970;37.502;2024-01-15T07:19:23;24.93;;;17.97;;
32407;SDS011;18869;55.970;37.502;2024-01-15T07:21:51;22.43;;;17.17;;
32407;SDS011;18869;55.970;37.502;2024-01-15T07:24:18;26.80;;;16.87;;
32407;SDS011;18869;55.970;37.502;2024-01-15T07:26:44;25.50;;;18.03;;
32407;SDS011;18869;55.970;37.502;2024-01-15T07:29:11;25.90;;;17.43;;
32407;SDS011;18869;55.970;37.502;2024-01-15T07:31:38;22.53;;;15.23;;
32407;SDS011;18869;55.970;37.502;2024-01-15T07:34:09;28.10;;;18.73;;
32407;SDS011;18869;55.970;37.502;2024-01-15T07:36:36;24.40;;;17.60;;
32407;SDS011;18869;55.970;37.502;2024-01-15T07:39:03;25.67;;;17.03;;
32407;SDS011;18869;55.970;37.502;2024-01-15T07:41:30;23.70;;;15.97;;
32407;SDS011;18869;55.970;37.502;2024-01-15T07:43:58;26.60;;;17.40;;
32407;SDS011;18869;55.970;37.502;2024-01-15T07:46:28;24.37;;;16.07;;
32407;SDS011;18869;55.970;37.502;2024-01-15T07:48:55;23.37;;;16.03;;
32407;SDS011;18869;55.970;37.502;2024-01-15T07:51:24;25.73;;;17.20;;
32407;SDS011;18869;55.970;37.502;2024-01-15T07:53:52;28.00;;;18.50;;
32407;SDS011;18869;55.970;37.502;2024-01-15T07:56:22;26.80;;;17.70;;
32407;SDS011;18869;55.970;37.502;2024-01-15T07:58:49;24.77;;;18.03;;
32407;SDS011;18869;55.970;37.502;2024-01-15T08:01:16;26.17;;;17.00;;
32407;SDS011;18869;55.970;37.502;2024-01-15T08:03:43;25.93;;;16.83;;
32407;SDS011;18869;55.970;37.502;2024-01-15T08:06:10;24.57;;;15.80;;
32407;SDS011;18869;55.970;37.502;2024-01-15T08:08:38;26.33;;;18.90;;
32407;SDS011;18869;55.970;37.502;2024-01-15T08:11:06;26.70;;;18.00;;
32407;SDS011;18869;55.970;37.502;2024-01-15T08:13:33;24.60;;;17.20;;
32407;SDS011;18869;55.970;37.502;2024-01-15T08:16:00;22.93;;;16.57;;
32407;SDS011;18869;55.970;37.502;2024-01-15T08:18:28;26.77;;;17.23;;
32407;SDS011;18869;55.970;37.502;2024-01-15T08:20:55;24.70;;;17.57;;
32407;SDS011;18869;55.970;37.502;2024-01-15T08:23:22;27.13;;;18.43;;
32407;SDS011;18869;55.970;37.502;2024-01-15T08:25:51;32.10;;;18.67;;
32407;SDS011;18869;55.970;37.502;2024-01-15T08:28:18;23.30;;;15.97;;
32407;SDS011;18869;55.970;37.502;2024-01-15T08:30:45;26.57;;;18.83;;
32407;SDS011;18869;55.970;37.502;2024-01-15T08:33:12;28.87;;;19.53;;
32407;SDS011;18869;55.970;37.502;2024-01-15T08:35:39;24.70;;;17.13;;
32407;SDS011;18869;55.970;37.502;2024-01-15T08:38:06;22.90;;;15.90;;
32407;SDS011;18869;55.970;37.502;2024-01-15T08:40:34;28.20;;;19.47;;
32407;SDS011;18869;55.970;37.502;2024-01-15T08:43:02;28.03;;;18.67;;
32407;SDS011;18869;55.970;37.502;2024-01-15T08:45:28;22.77;;;16.17;;
32407;SDS011;18869;55.970;37.502;2024-01-15T08:47:56;22.73;;;15.83;;
32407;SDS011;18869;55.970;37.502;2024-01-15T08:50:22;24.50;;;16.50;;
32407;SDS011;18869;55.970;37.502;2024-01-15T08:52:50;20.80;;;14.07;;
32407;SDS011;18869;55.970;37.502;2024-01-15T08:55:17;26.07;;;16.80;;
32407;SDS011;18869;55.970;37.502;2024-01-15T08:57:46;22.03;;;15.07;;
32407;SDS011;18869;55.970;37.502;2024-01-15T09:00:17;27.83;;;16.57;;
32407;SDS011;18869;55.970;37.502;2024-01-15T09:02:45;21.27;;;14.80;;
32407;SDS011;18869;55.970;37.502;2024-01-15T09:05:11;21.53;;;15.33;;
32407;SDS011;18869;55.970;37.502;2024-01-15T09:07:39;21.17;;;14.50;;
32407;SDS011;18869;55.970;37.502;2024-01-15T09:10:07;22.00;;;15.90;;
32407;SDS011;18869;55.970;37.502;2024-01-15T09:12:34;26.23;;;16.67;;
32407;SDS011;18869;55.970;37.502;2024-01-15T09:15:02;24.60;;;16.13;;
32407;SDS011;18869;55.970;37.502;2024-01-15T09:17:31;22.97;;;14.53;;
32407;SDS011;18869;55.970;37.502;2024-01-15T09:19:58;21.97;;;15.50;;
32407;SDS011;18869;55.970;37.502;2024-01-15T09:22:25;23.03;;;16.17;;
32407;SDS011;18869;55.970;37.502;2024-01-15T09:24:52;24.93;;;16.70;;
32407;SDS011;18869;55.970;37.502;2024-01-15T09:27:19;21.67;;;14.87;;
32407;SDS011;18869;55.970;37.502;2024-01-15T09:29:46;19.00;;;13.67;;
32407;SDS011;18869;55.970;37.502;2024-01-15T09:32:13;24.20;;;16.03;;
32407;SDS011;18869;55.970;37.502;2024-01-15T09:34:42;21.43;;;14.70;;
32407;SDS011;18869;55.970;37.502;2024-01-15T09:37:09;23.83;;;14.40;;
32407;SDS011;18869;55.970;37.502;2024-01-15T09:39:36;25.90;;;16.60;;
32407;SDS011;18869;55.970;37.502;2024-01-15T09:42:04;24.93;;;16.40;;
32407;SDS011;18869;55.970;37.502;2024-01-15T09:44:32;19.43;;;13.70;;
32407;SDS011;18869;55.970;37.502;2024-01-15T09:46:59;23.70;;;15.10;;
32407;SDS011;18869;55.970;37.502;2024-01-15T09:49:26;22.60;;;16.47;;
32407;SDS011;18869;55.970;37.502;2024-01-15T09:51:56;22.30;;;15.73;;
32407;SDS011;18869;55.970;37.502;2024-01-15T09:54:26;24.13;;;16.60;;
32407;SDS011;18869;55.970;37.502;2024-01-15T09:56:53;19.03;;;13.93;;
32407;SDS011;18869;55.970;37.502;2024-01-15T09:59:21;24.80;;;15.97;;
32407;SDS011;18869;55.970;37.502;2024-01-15T10:01:49;21.13;;;14.90;;
32407;SDS011;18869;55.970;37.502;2024-01-15T10:04:17;28.30;;;17.13;;
32407;SDS011;18869;55.970;37.502;2024-01-15T10:06:44;23.43;;;15.63;;
32407;SDS011;18869;55.970;37.502;2024-01-15T10:09:14;22.77;;;16.13;;
32407;SDS011;18869;55.970;37.502;2024-01-15T10:11:41;20.67;;;15.13;;
32407;SDS011;18869;55.970;37.502;2024-01-15T10:14:09;25.20;;;17.37;;
32407;SDS011;18869;55.970;37.502;2024-01-15T10:16:38;21.60;;;15.07;;
32407;SDS011;18869;55.970;37.502;2024-01-15T10:19:06;20.17;;;15.13;;
32407;SDS011;18869;55.970;37.502;2024-01-15T10:21:33;24.37;;;16.60;;
32407;SDS011;18869;55.970;37.502;2024-01-15T10:24:01;24.33;;;17.17;;
32407;SDS011;18869;55.970;37.502;2024-01-15T10:26:30;21.40;;;15.00;;
32407;SDS011;18869;55.970;37.502;2024-01-15T10:28:58;22.70;;;15.73;;
32407;SDS011;18869;55.970;37.502;2024-01-15T10:31:26;24.13;;;17.13;;
32407;SDS011;18869;55.970;37.502;2024-01-15T10:33:53;26.63;;;17.33;;
32407;SDS011;18869;55.970;37.502;2024-01-15T10:36:20;21.70;;;16.07;;
32407;SDS011;18869;55.970;37.502;2024-01-15T10:38:48;22.13;;;15.17;;
32407;SDS011;18869;55.970;37.502;2024-01-15T10:41:15;19.63;;;15.03;;
32407;SDS011;18869;55.970;37.502;2024-01-15T10:43:43;27.10;;;17.60;;
32407;SDS011;18869;55.970;37.502;2024-01-15T10:46:10;24.87;;;17.17;;
32407;SDS011;18869;55.970;37.502;2024-01-15T10:48:40;22.40;;;15.43;;
32407;SDS011;18869;55.970;37.502;2024-01-15T10:51:08;20.07;;;15.17;;
32407;SDS011;18869;55.970;37.502;2024-01-15T10:53:37;23.83;;;15.23;;
32407;SDS011;18869;55.970;37.502;2024-01-15T10:56:07;22.13;;;13.37;;
32407;SDS011;18869;55.970;37.502;2024-01-15T10:58:34;23.00;;;15.37;;
32407;SDS011;18869;55.970;37.502;2024-01-15T11:01:01;23.47;;;15.33;;
32407;SDS011;18869;55.970;37.502;2024-01-15T11:03:29;24.83;;;16.17;;
32407;SDS011;18869;55.970;37.502;2024-01-15T11:05:56;21.70;;;15.40;;
32407;SDS011;18869;55.970;37.502;2024-01-15T11:08:24;20.77;;;16.27;;
32407;SDS011;18869;55.970;37.502;2024-01-15T11:10:52;18.27;;;12.97;;
32407;SDS011;18869;55.970;37.502;2024-01-15T11:13:20;21.37;;;15.67;;
32407;SDS011;18869;55.970;37.502;2024-01-15T11:16:00;24.13;;;15.87;;
32407;SDS011;18869;55.970;37.502;2024-01-15T11:18:30;23.90;;;15.47;;
32407;SDS011;18869;55.970;37.502;2024-01-15T11:23:49;21.63;;;15.27;;
32407;SDS011;18869;55.970;37.502;2024-01-15T11:26:30;21.80;;;15.07;;
32407;SDS011;18869;55.970;37.502;2024-01-15T11:28:59;20.87;;;15.70;;
32407;SDS011;18869;55.970;37.502;2024-01-15T11:31:30;22.50;;;15.10;;
32407;SDS011;18869;55.970;37.502;2024-01-15T11:37:24;16.97;;;13.40;;
32407;SDS011;18869;55.970;37.502;2024-01-15T11:39:53;21.10;;;15.30;;
32407;SDS011;18869;55.970;37.502;2024-01-15T11:42:20;19.33;;;14.23;;
32407;SDS011;18869;55.970;37.502;2024-01-15T11:44:48;22.17;;;15.50;;
32407;SDS011;18869;55.970;37.502;2024-01-15T11:47:16;20.93;;;13.53;;
32407;SDS011;18869;55.970;37.502;2024-01-15T11:50:15;21.40;;;14.33;;
32407;SDS011;18869;55.970;37.502;2024-01-15T11:52:46;19.50;;;13.80;;
32407;SDS011;18869;55.970;37.502;2024-01-15T11:55:17;23.23;;;15.33;;
32407;SDS011;18869;55.970;37.502;2024-01-15T11:57:47;22.97;;;16.20;;
32407;SDS011;18869;55.970;37.502;2024-01-15T12:00:17;30.07;;;16.43;;
32407;SDS011;18869;55.970;37.502;2024-01-15T12:02:45;22.43;;;15.43;;
32407;SDS011;18869;55.970;37.502;2024-01-15T12:05:13;24.03;;;15.80;;
32407;SDS011;18869;55.970;37.502;2024-01-15T12:07:42;21.03;;;15.10;;
32407;SDS011;18869;55.970;37.502;2024-01-15T12:10:10;20.43;;;14.73;;
32407;SDS011;18869;55.970;37.502;2024-01-15T12:12:59;22.17;;;14.63;;
32407;SDS011;18869;55.970;37.502;2024-01-15T12:15:27;24.57;;;17.57;;
32407;SDS011;18869;55.970;37.502;2024-01-15T12:17:57;26.03;;;16.27;;
32407;SDS011;18869;55.970;37.502;2024-01-15T12:20:25;23.50;;;15.87;;
32407;SDS011;18869;55.970;37.502;2024-01-15T12:22:53;22.50;;;16.80;;
32407;SDS011;18869;55.970;37.502;2024-01-15T12:25:20;18.37;;;13.60;;
32407;SDS011;18869;55.970;37.502;2024-01-15T12:27:47;26.73;;;15.47;;
32407;SDS011;18869;55.970;37.502;2024-01-15T12:30:15;26.67;;;15.23;;
32407;SDS011;18869;55.970;37.502;2024-01-15T12:32:42;21.17;;;14.70;;
32407;SDS011;18869;55.970;37.502;2024-01-15T12:35:10;22.67;;;16.73;;
32407;SDS011;18869;55.970;37.502;2024-01-15T12:37:40;21.10;;;15.77;;
32407;SDS011;18869;55.970;37.502;2024-01-15T12:40:08;25.63;;;16.03;;
32407;SDS011;18869;55.970;37.502;2024-01-15T12:42:39;25.33;;;16.37;;
32407;SDS011;18869;55.970;37.502;2024-01-15T12:45:09;23.43;;;16.07;;
32407;SDS011;18869;55.970;37.502;2024-01-15T12:47:36;24.37;;;16.80;;
32407;SDS011;18869;55.970;37.502;2024-01-15T12:50:06;26.07;;;16.07;;
32407;SDS011;18869;55.970;37.502;2024-01-15T12:52:35;25.40;;;17.40;;
32407;SDS011;18869;55.970;37.502;2024-01-15T12:55:04;29.20;;;17.77;;
32407;SDS011;18869;55.970;37.502;2024-01-15T12:57:31;25.50;;;17.10;;
32407;SDS011;18869;55.970;37.502;2024-01-15T12:59:59;23.47;;;16.60;;
32407;SDS011;18869;55.970;37.502;2024-01-15T13:02:26;22.83;;;16.37;;
32407;SDS011;18869;55.970;37.502;2024-01-15T13:04:53;26.37;;;15.97;;
32407;SDS011;18869;55.970;37.502;2024-01-15T13:07:21;24.57;;;17.27;;
32407;SDS011;18869;55.970;37.502;2024-01-15T13:09:51;27.23;;;18.10;;
32407;SDS011;18869;55.970;37.502;2024-01-15T13:12:19;26.40;;;17.40;;
32407;SDS011;18869;55.970;37.502;2024-01-15T13:14:47;31.23;;;19.17;;
32407;SDS011;18869;55.970;37.502;2024-01-15T13:17:14;23.00;;;15.90;;
32407;SDS011;18869;55.970;37.502;2024-01-15T13:19:41;26.10;;;17.20;;
32407;SDS011;18869;55.970;37.502;2024-01-15T13:22:08;22.07;;;14.13;;
32407;SDS011;18869;55.970;37.502;2024-01-15T13:24:37;27.50;;;17.43;;
32407;SDS011;18869;55.970;37.502;2024-01-15T13:27:05;24.87;;;17.57;;
32407;SDS011;18869;55.970;37.502;2024-01-15T13:29:34;21.03;;;14.93;;
32407;SDS011;18869;55.970;37.502;2024-01-15T13:32:01;27.47;;;17.53;;
32407;SDS011;18869;55.970;37.502;2024-01-15T13:34:30;29.20;;;18.03;;
32407;SDS011;18869;55.970;37.502;2024-01-15T13:36:58;25.00;;;16.13;;
32407;SDS011;18869;55.970;37.502;2024-01-15T13:39:24;27.50;;;19.00;;
32407;SDS011;18869;55.970;37.502;2024-01-15T13:41:52;28.67;;;18.50;;
32407;SDS011;18869;55.970;37.502;2024-01-15T13:44:20;26.03;;;17.40;;
32407;SDS011;18869;55.970;37.502;2024-01-15T13:46:50;25.80;;;17.23;;
32407;SDS011;18869;55.970;37.502;2024-01-15T13:49:18;31.20;;;19.73;;
32407;SDS011;18869;55.970;37.502;2024-01-15T13:51:45;22.07;;;16.57;;
32407;SDS011;18869;55.970;37.502;2024-01-15T13:54:12;29.63;;;18.60;;
32407;SDS011;18869;55.970;37.502;2024-01-15T13:56:39;23.67;;;18.03;;
32407;SDS011;18869;55.970;37.502;2024-01-15T13:59:08;25.47;;;17.37;;
32407;SDS011;18869;55.970;37.502;2024-01-15T14:01:35;25.33;;;16.07;;
32407;SDS011;18869;55.970;37.502;2024-01-15T14:04:03;24.77;;;17.40;;
32407;SDS011;18869;55.970;37.502;2024-01-15T14:06:30;26.00;;;17.40;;
32407;SDS011;18869;55.970;37.502;2024-01-15T14:08:57;24.13;;;17.27;;
32407;SDS011;18869;55.970;37.502;2024-01-15T14:11:24;26.17;;;17.77;;
32407;SDS011;18869;55.970;37.502;2024-01-15T14:13:51;24.67;;;17.33;;
32407;SDS011;18869;55.970;37.502;2024-01-15T14:16:18;23.63;;;16.30;;
32407;SDS011;18869;55.970;37.502;2024-01-15T14:18:46;23.57;;;17.47;;